createdAt,value
2023-03-28T00:00:41.908Z,2.30
2023-03-28T00:03:08.628Z,2.30
2023-03-28T00:05:35.327Z,2.40
2023-03-28T00:08:05.303Z,2.30
2023-03-28T00:10:32.206Z,2.30
2023-03-28T00:12:58.819Z,2.30
2023-03-28T00:15:26.024Z,2.30
2023-03-28T00:17:55.211Z,2.30
2023-03-28T00:20:24.097Z,2.30
2023-03-28T00:22:50.730Z,2.20
2023-03-28T00:25:18.145Z,2.20
2023-03-28T00:27:44.992Z,2.20
2023-03-28T00:30:12.025Z,2.20
2023-03-28T00:32:43.547Z,2.20
2023-03-28T00:35:10.248Z,2.20
2023-03-28T00:37:36.838Z,2.20
2023-03-28T00:40:07.345Z,2.20
2023-03-28T00:42:40.811Z,2.20
2023-03-28T00:45:11.200Z,2.30
2023-03-28T00:47:57.678Z,2.30
2023-03-28T00:50:42.141Z,2.30
2023-03-28T00:53:19.744Z,2.20
2023-03-28T00:55:57.531Z,2.30
2023-03-28T00:58:29.508Z,2.20
2023-03-28T01:00:58.354Z,2.20
2023-03-28T01:03:33.471Z,2.10
2023-03-28T01:06:04.468Z,2.10
2023-03-28T01:08:35.800Z,2.10
2023-03-28T01:11:03.234Z,2.10
2023-03-28T01:13:32.646Z,2.10
2023-03-28T01:16:02.681Z,2.10
2023-03-28T01:18:34.616Z,2.00
2023-03-28T01:21:06.814Z,2.00
2023-03-28T01:24:12.549Z,2.00
2023-03-28T01:26:57.283Z,2.00
2023-03-28T01:30:03.706Z,2.00
2023-03-28T01:32:48.537Z,2.00
2023-03-28T01:35:39.798Z,2.00
2023-03-28T01:38:16.653Z,2.10
2023-03-28T01:41:00.799Z,2.10
2023-03-28T01:43:41.574Z,2.10
2023-03-28T01:46:22.353Z,2.10
2023-03-28T01:49:02.716Z,2.10
2023-03-28T01:51:47.104Z,2.20
2023-03-28T01:54:19.569Z,2.20
2023-03-28T01:57:01.449Z,2.30
2023-03-28T01:59:37.033Z,2.30
2023-03-28T02:02:12.232Z,2.30
2023-03-28T02:04:41.936Z,2.30
2023-03-28T02:07:10.917Z,2.30
2023-03-28T02:09:38.664Z,2.40
2023-03-28T02:12:31.401Z,2.30
2023-03-28T02:15:04.032Z,2.30
2023-03-28T02:17:39.007Z,2.30
2023-03-28T02:20:09.471Z,2.20
2023-03-28T02:22:45.661Z,2.20
2023-03-28T02:25:12.437Z,2.10
2023-03-28T02:27:42.585Z,2.10
2023-03-28T02:30:09.883Z,2.00
2023-03-28T02:32:36.668Z,2.00
2023-03-28T02:35:05.762Z,2.00
2023-03-28T02:37:44.384Z,1.90
2023-03-28T02:40:49.285Z,1.80
2023-03-28T02:43:41.608Z,1.80
2023-03-28T02:46:25.568Z,1.60
2023-03-28T02:48:57.295Z,1.50
2023-03-28T02:52:10.847Z,1.40
2023-03-28T02:55:01.897Z,1.40
2023-03-28T02:57:43.721Z,1.30
2023-03-28T03:00:19.159Z,1.30
2023-03-28T03:02:56.669Z,1.20
2023-03-28T03:05:23.626Z,1.10
2023-03-28T03:07:50.521Z,1.10
2023-03-28T03:10:21.965Z,1.00
2023-03-28T03:12:48.725Z,1.00
2023-03-28T03:15:17.168Z,1.00
2023-03-28T03:17:44.273Z,0.90
2023-03-28T03:20:14.203Z,0.90
2023-03-28T03:22:41.445Z,0.90
2023-03-28T03:25:09.148Z,0.80
2023-03-28T03:27:37.729Z,0.80
2023-03-28T03:30:08.282Z,0.80
2023-03-28T03:32:34.976Z,0.70
2023-03-28T03:35:01.695Z,0.70
2023-03-28T03:37:28.326Z,0.70
2023-03-28T03:39:54.963Z,0.70
2023-03-28T03:42:21.600Z,0.80
2023-03-28T03:44:48.281Z,0.70
2023-03-28T03:47:19.320Z,0.60
2023-03-28T03:49:46.008Z,0.60
2023-03-28T03:52:12.725Z,0.60
2023-03-28T03:54:39.527Z,0.60
2023-03-28T03:57:06.330Z,0.50
2023-03-28T03:59:35.263Z,0.50
2023-03-28T04:02:02.056Z,0.60
2023-03-28T04:04:29.091Z,0.60
2023-03-28T04:06:59.011Z,0.60
2023-03-28T04:09:28.888Z,0.70
2023-03-28T04:12:00.907Z,0.70
2023-03-28T04:14:27.591Z,0.70
2023-03-28T04:16:54.819Z,0.70
2023-03-28T04:19:24.272Z,0.70
2023-03-28T04:21:52.476Z,0.80
2023-03-28T04:24:25.747Z,0.80
2023-03-28T04:26:55.874Z,0.80
2023-03-28T04:29:24.983Z,0.80
2023-03-28T04:31:56.020Z,0.80
2023-03-28T04:34:30.947Z,0.80
2023-03-28T04:37:02.694Z,0.70
2023-03-28T04:39:31.209Z,0.70
2023-03-28T04:42:05.424Z,0.70
2023-03-28T04:44:32.240Z,0.60
2023-03-28T04:46:59.349Z,0.60
2023-03-28T04:49:26.610Z,0.50
2023-03-28T04:51:55.654Z,0.50
2023-03-28T04:54:22.601Z,0.50
2023-03-28T04:56:49.416Z,0.40
2023-03-28T04:59:17.023Z,0.40
2023-03-28T05:01:49.135Z,0.40
2023-03-28T05:04:20.252Z,0.40
2023-03-28T05:06:50.181Z,0.30
2023-03-28T05:09:17.545Z,0.30
2023-03-28T05:11:45.154Z,0.30
2023-03-28T05:14:14.173Z,0.30
2023-03-28T05:16:41.077Z,0.20
2023-03-28T05:19:09.926Z,0.30
2023-03-28T05:21:36.924Z,0.20
2023-03-28T05:24:03.744Z,0.20
2023-03-28T05:26:32.554Z,0.20
2023-03-28T05:28:59.216Z,0.20
2023-03-28T05:31:26.141Z,0.20
2023-03-28T05:33:53.002Z,0.20
2023-03-28T05:36:23.309Z,0.20
2023-03-28T05:38:52.424Z,0.20
2023-03-28T05:41:19.137Z,0.30
2023-03-28T05:43:45.911Z,0.20
2023-03-28T05:46:12.564Z,0.30
2023-03-28T05:48:39.225Z,0.30
2023-03-28T05:51:09.341Z,0.30
2023-03-28T05:53:36.098Z,0.30
2023-03-28T05:56:02.795Z,0.30
2023-03-28T05:58:29.643Z,0.40
2023-03-28T06:00:56.518Z,0.40
2023-03-28T06:03:23.322Z,0.40
2023-03-28T06:05:50.075Z,0.50
2023-03-28T06:08:16.838Z,0.60
2023-03-28T06:10:43.563Z,0.70
2023-03-28T06:13:14.953Z,0.70
2023-03-28T06:15:41.726Z,0.80
2023-03-28T06:18:08.556Z,0.90
2023-03-28T06:20:37.509Z,0.90
2023-03-28T06:23:04.244Z,1.00
2023-03-28T06:25:30.892Z,1.00
2023-03-28T06:28:00.153Z,1.10
2023-03-28T06:30:26.821Z,1.20
2023-03-28T06:32:53.584Z,1.30
2023-03-28T06:35:20.460Z,1.40
2023-03-28T06:37:47.169Z,1.50
2023-03-28T06:40:13.803Z,1.60
2023-03-28T06:42:40.638Z,1.70
2023-03-28T06:45:07.880Z,1.80
2023-03-28T06:47:34.704Z,1.80
2023-03-28T06:50:01.576Z,1.80
2023-03-28T06:52:28.332Z,1.90
2023-03-28T06:54:58.978Z,1.90
2023-03-28T06:57:25.902Z,1.90
2023-03-28T06:59:52.658Z,2.00
2023-03-28T07:02:19.382Z,2.00
2023-03-28T07:04:48.938Z,2.10
2023-03-28T07:07:15.601Z,2.20
2023-03-28T07:09:44.691Z,2.30
2023-03-28T07:12:11.431Z,2.40
2023-03-28T07:14:44.425Z,2.50
2023-03-28T07:17:12.520Z,2.70
2023-03-28T07:19:39.300Z,2.80
2023-03-28T07:22:06.056Z,3.00
2023-03-28T07:24:32.720Z,3.20
2023-03-28T07:27:12.284Z,3.40
2023-03-28T07:29:41.203Z,3.50
2023-03-28T07:32:11.134Z,3.80
2023-03-28T07:34:40.105Z,3.90
2023-03-28T07:37:08.084Z,4.10
2023-03-28T07:39:39.669Z,4.30
2023-03-28T07:42:18.414Z,4.50
2023-03-28T07:44:45.064Z,4.60
2023-03-28T07:47:12.122Z,4.80
2023-03-28T07:49:39.550Z,5.00
2023-03-28T07:52:06.522Z,5.30
2023-03-28T07:54:33.298Z,5.60
2023-03-28T07:57:00.473Z,5.80
2023-03-28T07:59:29.378Z,5.90
2023-03-28T08:01:56.297Z,5.90
2023-03-28T08:04:23.159Z,6.10
2023-03-28T08:06:52.133Z,6.30
2023-03-28T08:09:18.969Z,6.50
2023-03-28T08:11:46.590Z,6.50
2023-03-28T08:14:16.231Z,6.50
2023-03-28T08:16:44.241Z,6.50
2023-03-28T08:19:12.145Z,6.60
2023-03-28T08:21:39.276Z,6.60
2023-03-28T08:24:07.805Z,6.40
2023-03-28T08:26:37.304Z,6.50
2023-03-28T08:29:05.112Z,6.70
2023-03-28T08:31:31.901Z,6.70
2023-03-28T08:33:58.760Z,6.70
2023-03-28T08:36:29.616Z,6.80
2023-03-28T08:39:00.634Z,6.90
2023-03-28T08:41:49.190Z,7.00
2023-03-28T08:44:57.655Z,7.00
2023-03-28T08:47:31.390Z,7.00
2023-03-28T08:50:15.566Z,6.70
2023-03-28T08:52:44.579Z,6.80
2023-03-28T08:55:31.834Z,6.80
2023-03-28T08:57:59.410Z,6.60
2023-03-28T09:00:33.385Z,6.50
2023-03-28T09:03:00.982Z,6.50
2023-03-28T09:05:54.684Z,6.60
2023-03-28T09:08:36.582Z,6.80
2023-03-28T09:11:23.047Z,6.80
2023-03-28T09:14:32.687Z,7.10
2023-03-28T09:17:30.778Z,7.50
2023-03-28T09:20:21.968Z,7.90
2023-03-28T09:22:54.703Z,8.20
2023-03-28T09:25:32.642Z,8.30
2023-03-28T09:28:19.566Z,8.60
2023-03-28T09:30:50.598Z,8.80
2023-03-28T09:33:40.704Z,8.60
2023-03-28T09:36:19.087Z,8.40
2023-03-28T09:38:59.309Z,8.40
2023-03-28T09:41:35.039Z,8.40
2023-03-28T09:44:06.123Z,8.50
2023-03-28T09:46:44.083Z,8.70
2023-03-28T09:49:20.187Z,8.50
2023-03-28T09:51:53.620Z,8.40
2023-03-28T09:54:28.725Z,8.70
2023-03-28T09:57:02.711Z,8.80
2023-03-28T09:59:32.024Z,9.20
2023-03-28T10:02:00.693Z,9.60
2023-03-28T10:04:27.555Z,9.60
2023-03-28T10:07:18.884Z,9.70
2023-03-28T10:09:58.521Z,9.50
2023-03-28T10:12:36.588Z,9.50
2023-03-28T10:15:04.207Z,9.50
2023-03-28T10:17:34.736Z,9.60
2023-03-28T10:20:18.053Z,9.80
2023-03-28T10:22:47.199Z,10.10
2023-03-28T10:25:22.881Z,9.80
2023-03-28T10:27:52.350Z,9.30
2023-03-28T10:30:30.966Z,9.10
2023-03-28T10:33:16.098Z,9.20
2023-03-28T10:35:48.299Z,9.30
2023-03-28T10:38:20.242Z,9.60
2023-03-28T10:41:01.501Z,9.80
2023-03-28T10:43:36.471Z,9.80
2023-03-28T10:46:07.841Z,9.50
2023-03-28T10:48:36.837Z,9.40
2023-03-28T10:51:08.812Z,9.50
2023-03-28T10:54:10.506Z,10.00
2023-03-28T10:56:57.584Z,10.20
2023-03-28T11:00:07.182Z,10.30
2023-03-28T11:02:43.043Z,10.60
2023-03-28T11:05:52.260Z,11.00
2023-03-28T11:08:47.363Z,11.40
2023-03-28T11:11:47.609Z,11.40
2023-03-28T11:14:37.932Z,11.00
2023-03-28T11:17:12.967Z,10.30
2023-03-28T11:19:39.678Z,9.90
2023-03-28T11:22:29.247Z,9.70
2023-03-28T11:25:21.531Z,9.50
2023-03-28T11:28:00.871Z,9.50
2023-03-28T11:30:37.945Z,9.40
2023-03-28T11:33:26.765Z,9.50
2023-03-28T11:36:16.839Z,9.50
2023-03-28T11:38:52.064Z,9.60
2023-03-28T11:41:19.685Z,9.70
2023-03-28T11:44:10.907Z,9.70
2023-03-28T11:46:45.031Z,9.70
2023-03-28T11:49:16.274Z,9.60
2023-03-28T11:51:53.865Z,9.50
2023-03-28T11:54:46.805Z,9.70
2023-03-28T11:57:34.681Z,10.10
2023-03-28T12:00:33.883Z,10.40
2023-03-28T12:03:25.089Z,10.50
2023-03-28T12:06:12.487Z,10.90
2023-03-28T12:08:46.387Z,11.20
2023-03-28T12:11:19.056Z,11.50
2023-03-28T12:13:46.807Z,11.90
2023-03-28T12:16:40.754Z,12.00
2023-03-28T12:19:12.099Z,12.00
2023-03-28T12:21:45.071Z,12.00
2023-03-28T12:24:36.954Z,11.90
2023-03-28T12:27:22.321Z,11.70
2023-03-28T12:30:00.307Z,11.50
2023-03-28T12:32:40.702Z,11.50
2023-03-28T12:35:35.515Z,11.80
2023-03-28T12:38:24.389Z,12.20
2023-03-28T12:41:03.786Z,12.80
2023-03-28T12:44:02.399Z,13.20
2023-03-28T12:46:47.187Z,13.50
2023-03-28T12:49:49.055Z,13.80
2023-03-28T12:52:31.080Z,13.10
2023-03-28T12:55:03.698Z,12.60
2023-03-28T12:57:43.830Z,12.30
2023-03-28T13:00:23.587Z,12.40
2023-03-28T13:03:36.308Z,12.30
2023-03-28T13:06:24.048Z,12.40
2023-03-28T13:09:05.541Z,12.60
2023-03-28T13:11:38.467Z,13.10
2023-03-28T13:14:29.502Z,13.30
2023-03-28T13:16:59.090Z,13.00
2023-03-28T13:19:46.579Z,12.80
2023-03-28T13:22:58.395Z,12.80
2023-03-28T13:25:29.639Z,12.50
2023-03-28T13:28:19.132Z,12.60
2023-03-28T13:30:47.010Z,12.60
2023-03-28T13:33:32.700Z,12.50
2023-03-28T13:36:02.573Z,12.30
2023-03-28T13:38:44.080Z,12.20
2023-03-28T13:41:33.452Z,12.20
2023-03-28T13:44:07.044Z,12.20
2023-03-28T13:46:38.987Z,12.20
2023-03-28T13:49:14.803Z,12.30
2023-03-28T13:51:54.635Z,12.50
2023-03-28T13:54:21.749Z,13.00
2023-03-28T13:56:53.350Z,13.20
2023-03-28T13:59:25.144Z,13.10
2023-03-28T14:02:02.361Z,12.70
2023-03-28T14:04:33.937Z,12.40
2023-03-28T14:07:02.170Z,12.50
2023-03-28T14:09:33.399Z,12.60
2023-03-28T14:12:13.599Z,12.30
2023-03-28T14:14:47.777Z,12.20
2023-03-28T14:17:29.264Z,12.40
2023-03-28T14:19:58.788Z,12.80
2023-03-28T14:22:31.310Z,12.70
2023-03-28T14:25:00.808Z,12.60
2023-03-28T14:27:42.211Z,12.80
2023-03-28T14:30:39.389Z,12.90
2023-03-28T14:33:18.774Z,13.30
2023-03-28T14:35:58.841Z,13.30
2023-03-28T14:38:46.627Z,13.40
2023-03-28T14:41:19.254Z,13.20
2023-03-28T14:43:54.829Z,13.10
2023-03-28T14:46:28.121Z,13.10
2023-03-28T14:49:01.179Z,13.00
2023-03-28T14:51:28.271Z,13.00
2023-03-28T14:53:56.282Z,12.90
2023-03-28T14:56:26.224Z,13.00
2023-03-28T14:58:57.553Z,12.90
2023-03-28T15:01:32.800Z,12.90
2023-03-28T15:04:05.939Z,12.70
2023-03-28T15:06:35.300Z,12.70
2023-03-28T15:09:11.354Z,12.60
2023-03-28T15:11:43.602Z,12.60
2023-03-28T15:14:31.305Z,12.50
2023-03-28T15:17:01.078Z,12.30
2023-03-28T15:19:35.912Z,12.20
2023-03-28T15:22:10.418Z,12.30
2023-03-28T15:24:41.347Z,12.20
2023-03-28T15:27:14.589Z,12.10
2023-03-28T15:29:41.644Z,11.90
2023-03-28T15:32:17.093Z,11.70
2023-03-28T15:34:46.966Z,11.60
2023-03-28T15:37:21.129Z,11.80
2023-03-28T15:39:52.648Z,12.50
2023-03-28T15:42:22.657Z,12.80
2023-03-28T15:45:00.687Z,12.90
2023-03-28T15:47:35.304Z,12.70
2023-03-28T15:50:08.771Z,12.70
2023-03-28T15:52:35.711Z,13.00
2023-03-28T15:55:05.872Z,13.10
2023-03-28T15:57:33.309Z,13.20
2023-03-28T16:00:01.086Z,13.30
2023-03-28T16:02:33.173Z,13.50
2023-03-28T16:05:07.566Z,13.60
2023-03-28T16:07:37.206Z,13.80
2023-03-28T16:10:04.452Z,13.90
2023-03-28T16:12:31.561Z,13.70
2023-03-28T16:14:58.686Z,13.50
2023-03-28T16:17:28.972Z,13.20
2023-03-28T16:19:57.273Z,13.10
2023-03-28T16:22:27.352Z,12.90
2023-03-28T16:24:55.239Z,12.60
2023-03-28T16:27:24.376Z,12.40
2023-03-28T16:29:56.761Z,12.10
2023-03-28T16:32:25.009Z,11.90
2023-03-28T16:34:54.390Z,11.80
2023-03-28T16:37:21.911Z,11.60
2023-03-28T16:39:48.801Z,11.50
2023-03-28T16:42:20.898Z,11.20
2023-03-28T16:44:50.170Z,11.10
2023-03-28T16:47:17.061Z,10.90
2023-03-28T16:49:46.174Z,10.90
2023-03-28T16:52:13.024Z,10.80
2023-03-28T16:54:39.930Z,10.80
2023-03-28T16:57:07.013Z,10.70
2023-03-28T16:59:33.829Z,10.60
2023-03-28T17:02:03.474Z,10.50
2023-03-28T17:04:30.409Z,10.50
2023-03-28T17:06:57.079Z,10.50
2023-03-28T17:09:23.980Z,10.50
2023-03-28T17:11:50.764Z,10.50
2023-03-28T17:14:17.535Z,10.50
2023-03-28T17:16:45.880Z,10.50
2023-03-28T17:19:12.977Z,10.50
2023-03-28T17:21:40.133Z,10.50
2023-03-28T17:24:11.320Z,10.50
2023-03-28T17:26:38.201Z,10.40
2023-03-28T17:29:07.410Z,10.40
2023-03-28T17:31:37.341Z,10.40
2023-03-28T17:34:04.710Z,10.30
2023-03-28T17:36:34.818Z,10.30
2023-03-28T17:39:02.725Z,10.30
2023-03-28T17:41:32.630Z,10.30
2023-03-28T17:44:00.005Z,10.30
2023-03-28T17:46:27.277Z,10.30
2023-03-28T17:48:54.523Z,10.20
2023-03-28T17:51:22.833Z,10.20
2023-03-28T17:53:51.974Z,10.20
2023-03-28T17:56:21.665Z,10.20
2023-03-28T17:58:48.544Z,10.20
2023-03-28T18:01:18.565Z,10.20
2023-03-28T18:03:46.400Z,10.20
2023-03-28T18:06:15.464Z,10.20
2023-03-28T18:08:44.728Z,10.20
2023-03-28T18:11:14.705Z,10.20
2023-03-28T18:13:42.972Z,10.20
2023-03-28T18:16:12.646Z,10.10
2023-03-28T18:18:42.070Z,10.10
2023-03-28T18:21:11.337Z,10.10
2023-03-28T18:23:38.729Z,10.10
2023-03-28T18:26:06.885Z,10.10
2023-03-28T18:28:34.748Z,10.00
2023-03-28T18:31:13.106Z,10.10
2023-03-28T18:33:42.235Z,10.10
2023-03-28T18:36:10.489Z,10.00
2023-03-28T18:38:42.362Z,10.00
2023-03-28T18:41:10.783Z,10.00
2023-03-28T18:43:41.485Z,10.00
2023-03-28T18:46:16.015Z,10.00
2023-03-28T18:48:44.803Z,10.00
2023-03-28T18:51:12.054Z,10.00
2023-03-28T18:53:38.917Z,10.00
2023-03-28T18:56:07.473Z,10.00
2023-03-28T18:58:36.262Z,9.90
2023-03-28T19:01:03.769Z,9.90
2023-03-28T19:03:40.632Z,9.90
2023-03-28T19:06:09.231Z,9.80
2023-03-28T19:08:36.601Z,9.80
2023-03-28T19:11:09.531Z,9.70
2023-03-28T19:13:36.750Z,9.60
2023-03-28T19:16:07.986Z,9.50
2023-03-28T19:18:38.401Z,9.50
2023-03-28T19:21:08.411Z,9.40
2023-03-28T19:23:38.094Z,9.30
2023-03-28T19:26:07.402Z,9.30
2023-03-28T19:28:37.495Z,9.30
2023-03-28T19:31:06.706Z,9.30
2023-03-28T19:33:33.876Z,9.30
2023-03-28T19:36:01.381Z,9.30
2023-03-28T19:38:30.890Z,9.30
2023-03-28T19:40:59.448Z,9.30
2023-03-28T19:43:27.376Z,9.20
2023-03-28T19:45:54.516Z,9.10
2023-03-28T19:48:21.635Z,9.10
2023-03-28T19:50:52.103Z,9.00
2023-03-28T19:53:19.234Z,8.90
2023-03-28T19:55:59.798Z,8.80
2023-03-28T19:58:28.330Z,8.80
2023-03-28T20:00:57.102Z,8.80
2023-03-28T20:03:26.807Z,8.90
2023-03-28T20:05:53.528Z,8.80
2023-03-28T20:08:21.357Z,8.90
2023-03-28T20:10:51.283Z,8.90
2023-03-28T20:13:18.544Z,8.80
2023-03-28T20:15:46.377Z,8.80
2023-03-28T20:18:19.560Z,8.80
2023-03-28T20:20:54.689Z,8.80
2023-03-28T20:23:28.839Z,8.80
2023-03-28T20:26:00.853Z,8.90
2023-03-28T20:28:34.838Z,8.90
2023-03-28T20:31:01.658Z,8.90
2023-03-28T20:33:28.463Z,8.90
2023-03-28T20:35:57.306Z,9.00
2023-03-28T20:38:25.341Z,9.00
2023-03-28T20:40:54.267Z,9.00
2023-03-28T20:43:21.448Z,9.00
2023-03-28T20:45:56.593Z,9.00
2023-03-28T20:48:35.925Z,9.00
2023-03-28T20:51:14.270Z,9.00
2023-03-28T20:53:43.524Z,9.00
2023-03-28T20:56:13.618Z,8.90
2023-03-28T20:58:47.744Z,8.80
2023-03-28T21:01:16.712Z,8.80
2023-03-28T21:03:46.678Z,8.80
2023-03-28T21:06:20.470Z,8.80
2023-03-28T21:08:49.517Z,8.80
2023-03-28T21:11:22.168Z,8.80
2023-03-28T21:13:51.726Z,8.90
2023-03-28T21:16:18.634Z,8.90
2023-03-28T21:18:46.717Z,8.90
2023-03-28T21:21:14.819Z,8.90
2023-03-28T21:23:42.387Z,8.80
2023-03-28T21:26:15.175Z,8.70
2023-03-28T21:28:44.765Z,8.70
2023-03-28T21:31:14.249Z,8.70
2023-03-28T21:33:43.770Z,8.70
2023-03-28T21:36:12.442Z,8.70
2023-03-28T21:38:39.696Z,8.60
2023-03-28T21:41:07.333Z,8.50
2023-03-28T21:43:34.540Z,8.40
2023-03-28T21:46:02.332Z,8.40
2023-03-28T21:48:29.756Z,8.30
2023-03-28T21:51:01.246Z,8.30
2023-03-28T21:53:33.501Z,8.30
2023-03-28T21:56:00.262Z,8.20
2023-03-28T21:58:29.912Z,8.20
2023-03-28T22:00:57.108Z,8.30
2023-03-28T22:03:24.512Z,8.30
2023-03-28T22:05:52.457Z,8.30
2023-03-28T22:08:22.616Z,8.20
2023-03-28T22:10:55.078Z,8.20
2023-03-28T22:13:23.674Z,8.20
2023-03-28T22:15:57.946Z,8.20
2023-03-28T22:18:27.256Z,8.20
2023-03-28T22:20:54.076Z,8.10
2023-03-28T22:23:26.384Z,8.10
2023-03-28T22:25:53.374Z,8.20
2023-03-28T22:28:24.450Z,8.20
2023-03-28T22:30:53.941Z,8.10
2023-03-28T22:33:20.973Z,8.10
2023-03-28T22:35:50.426Z,8.10
2023-03-28T22:38:19.694Z,8.00
2023-03-28T22:40:49.119Z,7.90
2023-03-28T22:43:16.715Z,8.00
2023-03-28T22:45:45.869Z,8.00
2023-03-28T22:48:14.831Z,8.10
2023-03-28T22:50:44.245Z,8.10
2023-03-28T22:53:14.946Z,8.10
2023-03-28T22:55:43.488Z,8.10
2023-03-28T22:58:10.533Z,8.10
2023-03-28T23:00:37.439Z,8.10
2023-03-28T23:03:04.274Z,8.10
2023-03-28T23:05:31.341Z,8.10
2023-03-28T23:08:01.187Z,8.10
2023-03-28T23:10:27.911Z,8.10
2023-03-28T23:12:54.576Z,8.10
2023-03-28T23:15:21.416Z,8.10
2023-03-28T23:17:48.309Z,8.20
2023-03-28T23:20:19.103Z,8.20
2023-03-28T23:22:51.083Z,8.20
2023-03-28T23:25:22.023Z,8.20
2023-03-28T23:27:48.712Z,8.20
2023-03-28T23:30:17.905Z,8.20
2023-03-28T23:32:44.822Z,8.20
2023-03-28T23:35:12.019Z,8.20
2023-03-28T23:37:39.650Z,8.30
2023-03-28T23:40:11.380Z,8.20
2023-03-28T23:42:38.034Z,8.20
2023-03-28T23:45:05.172Z,8.20
2023-03-28T23:47:31.857Z,8.20
2023-03-28T23:49:58.509Z,8.20
2023-03-28T23:52:27.640Z,8.20
2023-03-28T23:54:54.316Z,8.20
2023-03-28T23:57:28.474Z,8.20
2023-03-28T23:59:58.177Z,8.10
